San Jose, California
Current Conditions -  °F | °C
As of 9:53 PM on Sunday 25 Jan 2015 (Local Time) from KSJC Reporting Station
Scattered Clouds Scattered Clouds  
Wind Chill: 51°   Ceiling: Unl
Heat Index: 51°   Visibility: 10mi
Dew Point: 43°   Wind: 6mph
Humidity: 74%   Direction: 160°SSE
Pressure: 30.05"   Gusts: NA
Location:  37.35°N, 121.9°W
Report Text: KSJC 260553Z 16005KT 10SM SCT250 11/06 A3005 RMK AO2 SLP173 T01060061 10172 20100 50005
Loading
Personal Weather Stations






























Interactive Weather Map New forecast layout! Learn more

10-Day Weather Forecast

Advertisements
Track Severe Weather on mobile